TimeEST,TemperatureF,Dew PointF,Humidity,Sea Level PressureIn,VisibilityMPH,Wind Direction,Wind SpeedMPH,Gust SpeedMPH,PrecipitationIn,Events,Conditions,WindDirDegrees,DateUTC
12:52 AM,19.9,12.0,71,30.48,10.0,Calm,Calm,-,N/A,,Overcast,0,2013-12-09 05:52:00
1:52 AM,21.0,10.0,63,30.45,10.0,East,4.6,-,N/A,,Overcast,90,2013-12-09 06:52:00
2:52 AM,21.9,7.0,53,30.41,10.0,ENE,3.5,-,N/A,,Overcast,70,2013-12-09 07:52:00
3:52 AM,23.0,8.1,53,30.39,10.0,SE,3.5,-,N/A,,Overcast,130,2013-12-09 08:52:00
4:52 AM,23.0,12.9,65,30.36,3.0,SE,10.4,-,0.00,Snow,Light Snow,130,2013-12-09 09:52:00
5:52 AM,24.1,12.0,60,30.32,10.0,Variable,3.5,-,0.00,,Overcast,0,2013-12-09 10:52:00
6:52 AM,24.1,12.0,60,30.28,10.0,South,13.8,20.7,N/A,,Overcast,170,2013-12-09 11:52:00
7:52 AM,25.0,12.9,60,30.25,10.0,South,11.5,21.9,N/A,,Overcast,170,2013-12-09 12:52:00
8:52 AM,26.1,15.1,63,30.20,6.0,South,11.5,23.0,N/A,,Haze,170,2013-12-09 13:52:00
9:52 AM,27.0,15.1,61,30.14,10.0,South,16.1,29.9,N/A,,Overcast,190,2013-12-09 14:52:00
10:52 AM,28.9,16.0,58,30.10,10.0,South,12.7,29.9,N/A,,Overcast,180,2013-12-09 15:52:00
11:52 AM,30.9,18.0,59,30.06,10.0,SSE,25.3,39.1,0.00,,Overcast,160,2013-12-09 16:52:00
12:52 PM,32.0,19.0,59,30.00,10.0,South,9.2,17.3,N/A,,Overcast,170,2013-12-09 17:52:00
1:52 PM,33.1,21.0,61,29.94,10.0,South,19.6,31.1,N/A,,Overcast,180,2013-12-09 18:52:00
2:52 PM,34.0,21.9,61,29.93,10.0,South,18.4,34.5,N/A,,Overcast,170,2013-12-09 19:52:00
3:52 PM,36.0,24.1,62,29.90,10.0,South,16.1,21.9,N/A,,Overcast,180,2013-12-09 20:52:00
4:52 PM,37.0,25.0,62,29.88,10.0,Variable,5.8,19.6,N/A,,Overcast,0,2013-12-09 21:52:00
5:52 PM,37.0,26.1,65,29.88,10.0,West,6.9,-,N/A,,Overcast,280,2013-12-09 22:52:00
6:52 PM,33.1,26.1,75,29.86,10.0,NW,4.6,-,N/A,,Overcast,310,2013-12-09 23:52:00
7:52 PM,32.0,26.1,79,29.87,10.0,Calm,Calm,-,N/A,,Mostly Cloudy,0,2013-12-10 00:52:00
8:52 PM,30.9,26.1,82,29.86,10.0,Calm,Calm,-,N/A,,Overcast,0,2013-12-10 01:52:00
9:52 PM,30.0,26.1,85,29.85,10.0,Calm,Calm,-,N/A,,Overcast,0,2013-12-10 02:52:00
10:52 PM,28.9,26.1,89,29.85,10.0,Calm,Calm,-,N/A,,Mostly Cloudy,0,2013-12-10 03:52:00
11:36 PM,33.1,28.0,82,29.81,2.5,WNW,8.1,-,0.00,Snow,Light Snow,290,2013-12-10 04:36:00
11:48 PM,33.8,28.4,81,29.81,3.0,West,8.1,-,0.00,Snow,Light Snow,270,2013-12-10 04:48:00
11:52 PM,33.1,28.9,85,29.86,4.0,West,5.8,-,0.00,Snow,Light Snow,260,2013-12-10 04:52:00